<?xml version='1.0' encoding='UTF-8'?><gpx version="1.1" creator="JPX - https://github.com/jenetics/jpx" xmlns="http://www.topografix.com/GPX/1/1"><trk><trkseg><trkpt lat="43.279930129789044" lon="10.780510226716874"><ele>355.99999999999994</ele><time>2026-03-26T09:35:05Z</time></trkpt><trkpt lat="43.279903183191756" lon="10.780606219629606"><ele>356.0</ele><time>2026-03-26T09:35:12Z</time></trkpt><trkpt lat="43.279927058941084" lon="10.780689663605335"><ele>356.0</ele><time>2026-03-26T09:35:18Z</time></trkpt><trkpt lat="43.27990001830296" lon="10.78080168310321"><ele>356.0</ele><time>2026-03-26T09:35:22Z</time></trkpt><trkpt lat="43.279878624043555" lon="10.780889137934974"><ele>356.0</ele><time>2026-03-26T09:35:31Z</time></trkpt><trkpt lat="43.27983476239569" lon="10.780958482334189"><ele>355.99999999999994</ele><time>2026-03-26T09:35:48Z</time></trkpt><trkpt lat="43.27977417519597" lon="10.780982864757911"><ele>356.0</ele><time>2026-03-26T09:35:57Z</time></trkpt><trkpt lat="43.279715635598556" lon="10.781024978455651"><ele>355.99999999999994</ele><time>2026-03-26T09:36:02Z</time></trkpt><trkpt lat="43.279646763768454" lon="10.781013887579702"><ele>356.0</ele><time>2026-03-26T09:36:07Z</time></trkpt><trkpt lat="43.279599096222476" lon="10.780937345401297"><ele>356.0</ele><time>2026-03-26T09:36:13Z</time></trkpt><trkpt lat="43.27953876319707" lon="10.780870715264191"><ele>356.0</ele><time>2026-03-26T09:36:20Z</time></trkpt><trkpt lat="43.279477932836976" lon="10.780915544344062"><ele>356.0</ele><time>2026-03-26T09:36:25Z</time></trkpt><trkpt lat="43.279400797330034" lon="10.780918802576657"><ele>355.99999999999994</ele><time>2026-03-26T09:36:31Z</time></trkpt><trkpt lat="43.27932659099761" lon="10.780952007344009"><ele>356.0</ele><time>2026-03-26T09:36:37Z</time></trkpt><trkpt lat="43.279282350128305" lon="10.781016814500216"><ele>354.4285714285714</ele><time>2026-03-26T09:36:42Z</time></trkpt><trkpt lat="43.27924595684774" lon="10.78110744012294"><ele>352.85714285714283</ele><time>2026-03-26T09:36:47Z</time></trkpt><trkpt lat="43.279240573117974" lon="10.781207262026724"><ele>351.2857142857143</ele><time>2026-03-26T09:36:52.999Z</time></trkpt><trkpt lat="43.27922706122192" lon="10.781299871748601"><ele>349.71428571428567</ele><time>2026-03-26T09:36:56.999Z</time></trkpt><trkpt lat="43.27922743010275" lon="10.781408879289316"><ele>348.1428571428571</ele><time>2026-03-26T09:37:04Z</time></trkpt><trkpt lat="43.27923588611353" lon="10.781495353146372"><ele>346.57142857142856</ele><time>2026-03-26T09:37:08Z</time></trkpt><trkpt lat="43.279253672574896" lon="10.78158243325016"><ele>345.0</ele><time>2026-03-26T09:37:13Z</time></trkpt><trkpt lat="43.27928729537354" lon="10.7816781731334"><ele>345.0</ele><time>2026-03-26T09:37:18Z</time></trkpt><trkpt lat="43.27933039276411" lon="10.78175723860721"><ele>345.0</ele><time>2026-03-26T09:37:23Z</time></trkpt><trkpt lat="43.279295256603575" lon="10.781844980662433"><ele>345.0</ele><time>2026-03-26T09:37:31Z</time></trkpt><trkpt lat="43.27923104396926" lon="10.781848945420613"><ele>345.0</ele><time>2026-03-26T09:37:37Z</time></trkpt><trkpt lat="43.2791614509737" lon="10.781757221656232"><ele>345.0</ele><time>2026-03-26T09:37:43Z</time></trkpt><trkpt lat="43.279137651854356" lon="10.781670261635592"><ele>345.0</ele><time>2026-03-26T09:37:49Z</time></trkpt><trkpt lat="43.27911509463503" lon="10.781580184522078"><ele>345.0</ele><time>2026-03-26T09:37:55Z</time></trkpt><trkpt lat="43.27906849031608" lon="10.781489780385897"><ele>345.0</ele><time>2026-03-26T09:37:59Z</time></trkpt><trkpt lat="43.27899965023748" lon="10.781427760477763"><ele>345.0</ele><time>2026-03-26T09:38:03Z</time></trkpt><trkpt lat="43.27892873208058" lon="10.781402727985158"><ele>345.0</ele><time>2026-03-26T09:38:07Z</time></trkpt><trkpt lat="43.2788522155153" lon="10.781402406007807"><ele>345.0</ele><time>2026-03-26T09:38:13Z</time></trkpt><trkpt lat="43.278786917886215" lon="10.781385134627106"><ele>345.0</ele><time>2026-03-26T09:38:21Z</time></trkpt><trkpt lat="43.27871478511404" lon="10.78139277223083"><ele>345.0</ele><time>2026-03-26T09:38:26Z</time></trkpt><trkpt lat="43.278648512453636" lon="10.781339652903844"><ele>345.0</ele><time>2026-03-26T09:38:31Z</time></trkpt><trkpt lat="43.27857829685932" lon="10.781309409275172"><ele>344.42857142857144</ele><time>2026-03-26T09:38:35Z</time></trkpt><trkpt lat="43.27851072855119" lon="10.78128201778899"><ele>343.85714285714283</ele><time>2026-03-26T09:38:39Z</time></trkpt><trkpt lat="43.27844583022519" lon="10.781224625678908"><ele>343.2857142857143</ele><time>2026-03-26T09:38:44Z</time></trkpt><trkpt lat="43.278395076672076" lon="10.781145082121522"><ele>342.7142857142857</ele><time>2026-03-26T09:38:48.999Z</time></trkpt><trkpt lat="43.27833577963821" lon="10.78107584549836"><ele>342.14285714285717</ele><time>2026-03-26T09:38:53.999Z</time></trkpt><trkpt lat="43.27828794551011" lon="10.781002900825051"><ele>341.57142857142856</ele><time>2026-03-26T09:39:15Z</time></trkpt><trkpt lat="43.27822388877821" lon="10.781000061114595"><ele>341.0</ele><time>2026-03-26T09:39:19Z</time></trkpt><trkpt lat="43.27816711810527" lon="10.780895861542891"><ele>341.0</ele><time>2026-03-26T09:39:30Z</time></trkpt><trkpt lat="43.27810422913933" lon="10.78091625065464"><ele>341.0</ele><time>2026-03-26T09:39:36Z</time></trkpt><trkpt lat="43.27806385882498" lon="10.780984370432595"><ele>341.0</ele><time>2026-03-26T09:39:39Z</time></trkpt><trkpt lat="43.278063017522875" lon="10.781074854239218"><ele>341.0</ele><time>2026-03-26T09:39:51Z</time></trkpt><trkpt lat="43.27803859199515" lon="10.781154835599693"><ele>341.0</ele><time>2026-03-26T09:39:56Z</time></trkpt><trkpt lat="43.27800930775808" lon="10.78125441914618"><ele>341.0</ele><time>2026-03-26T09:40:02Z</time></trkpt><trkpt lat="43.27796988919585" lon="10.781325861284314"><ele>341.0</ele><time>2026-03-26T09:40:07Z</time></trkpt><trkpt lat="43.27790861508836" lon="10.781365718712612"><ele>340.1428571428571</ele><time>2026-03-26T09:40:13Z</time></trkpt><trkpt lat="43.277838568560206" lon="10.781403274348678"><ele>339.2857142857143</ele><time>2026-03-26T09:40:19Z</time></trkpt><trkpt lat="43.27776436748174" lon="10.78140894479052"><ele>338.42857142857144</ele><time>2026-03-26T09:40:25Z</time></trkpt><trkpt lat="43.277702876426815" lon="10.781439076102997"><ele>337.57142857142856</ele><time>2026-03-26T09:40:39.999Z</time></trkpt><trkpt lat="43.27763549292796" lon="10.781464729902217"><ele>336.7142857142857</ele><time>2026-03-26T09:40:48.999Z</time></trkpt><trkpt lat="43.27756086964532" lon="10.781488761671305"><ele>335.85714285714283</ele><time>2026-03-26T09:40:55.999Z</time></trkpt><trkpt lat="43.27748459196398" lon="10.781502493369318"><ele>335.0</ele><time>2026-03-26T09:41:00.999Z</time></trkpt><trkpt lat="43.277413936765" lon="10.781509305088242"><ele>334.99999999999994</ele><time>2026-03-26T09:41:05.999Z</time></trkpt><trkpt lat="43.277343258455" lon="10.781522990713473"><ele>335.0</ele><time>2026-03-26T09:41:11Z</time></trkpt><trkpt lat="43.27726312965131" lon="10.781507069901117"><ele>335.0</ele><time>2026-03-26T09:41:18Z</time></trkpt><trkpt lat="43.277198740177106" lon="10.781521805331641"><ele>335.0</ele><time>2026-03-26T09:41:23Z</time></trkpt><trkpt lat="43.27713167507062" lon="10.78156614114168"><ele>335.0</ele><time>2026-03-26T09:41:30Z</time></trkpt><trkpt lat="43.277077345537734" lon="10.781611309217137"><ele>334.99999999999994</ele><time>2026-03-26T09:41:35Z</time></trkpt><trkpt lat="43.277018053240305" lon="10.781571941656358"><ele>335.0</ele><time>2026-03-26T09:41:42Z</time></trkpt><trkpt lat="43.27694831646402" lon="10.781578580758792"><ele>333.71428571428567</ele><time>2026-03-26T09:41:49Z</time></trkpt><trkpt lat="43.276913968867255" lon="10.781504064039469"><ele>332.42857142857144</ele><time>2026-03-26T09:41:55Z</time></trkpt><trkpt lat="43.27687482002279" lon="10.781428649378698"><ele>331.1428571428571</ele><time>2026-03-26T09:42:01Z</time></trkpt><trkpt lat="43.276836322984444" lon="10.781355803236"><ele>329.85714285714283</ele><time>2026-03-26T09:42:07Z</time></trkpt><trkpt lat="43.27679099394427" lon="10.781294924382664"><ele>328.57142857142856</ele><time>2026-03-26T09:42:11Z</time></trkpt><trkpt lat="43.276695214413756" lon="10.781219782402362"><ele>327.2857142857143</ele><time>2026-03-26T09:42:27Z</time></trkpt><trkpt lat="43.27662932017483" lon="10.781205507224708"><ele>326.0</ele><time>2026-03-26T09:43:03.999Z</time></trkpt><trkpt lat="43.27656857580367" lon="10.78124891399933"><ele>326.0</ele><time>2026-03-26T09:43:09.999Z</time></trkpt><trkpt lat="43.276515406743435" lon="10.781298614212634"><ele>326.0</ele><time>2026-03-26T09:43:14.999Z</time></trkpt><trkpt lat="43.276458109988894" lon="10.781350856897676"><ele>326.0</ele><time>2026-03-26T09:43:19Z</time></trkpt><trkpt lat="43.276393889381794" lon="10.781377405907499"><ele>326.0</ele><time>2026-03-26T09:43:23Z</time></trkpt><trkpt lat="43.276326328049876" lon="10.781407478307637"><ele>326.0</ele><time>2026-03-26T09:43:28Z</time></trkpt><trkpt lat="43.276256596270244" lon="10.781438572306499"><ele>326.0</ele><time>2026-03-26T09:43:35Z</time></trkpt><trkpt lat="43.27618303692591" lon="10.781442119629562"><ele>326.0</ele><time>2026-03-26T09:43:40Z</time></trkpt><trkpt lat="43.276115808189346" lon="10.781423595411077"><ele>323.2857142857143</ele><time>2026-03-26T09:43:45Z</time></trkpt><trkpt lat="43.276041113704885" lon="10.781429185936876"><ele>320.57142857142856</ele><time>2026-03-26T09:43:50Z</time></trkpt><trkpt lat="43.275988202094425" lon="10.7813801957583"><ele>317.85714285714283</ele><time>2026-03-26T09:43:54Z</time></trkpt><trkpt lat="43.27595149017931" lon="10.781293965906112"><ele>315.1428571428571</ele><time>2026-03-26T09:43:59Z</time></trkpt><trkpt lat="43.27591700191656" lon="10.781213415325627"><ele>312.42857142857144</ele><time>2026-03-26T09:44:07Z</time></trkpt><trkpt lat="43.27590585781373" lon="10.78110729218012"><ele>309.71428571428567</ele><time>2026-03-26T09:44:14Z</time></trkpt><trkpt lat="43.27584031432704" lon="10.781126645578423"><ele>307.0</ele><time>2026-03-26T09:44:20Z</time></trkpt><trkpt lat="43.275779319866096" lon="10.781158548987777"><ele>306.99999999999994</ele><time>2026-03-26T09:44:24Z</time></trkpt><trkpt lat="43.27573220447238" lon="10.781096519002626"><ele>307.0</ele><time>2026-03-26T09:44:30Z</time></trkpt><trkpt lat="43.27574385857452" lon="10.78099951092569"><ele>307.0</ele><time>2026-03-26T09:44:33.999Z</time></trkpt><trkpt lat="43.27569235506795" lon="10.780938987079438"><ele>307.0</ele><time>2026-03-26T09:44:39.999Z</time></trkpt><trkpt lat="43.275641468868265" lon="10.780878538508103"><ele>307.0</ele><time>2026-03-26T09:44:45.999Z</time></trkpt><trkpt lat="43.275593957303485" lon="10.780817861205298"><ele>306.99999999999994</ele><time>2026-03-26T09:44:50.999Z</time></trkpt><trkpt lat="43.275561243901485" lon="10.780742927460405"><ele>307.0</ele><time>2026-03-26T09:44:55.999Z</time></trkpt><trkpt lat="43.275533563414186" lon="10.780650609384914"><ele>307.1428571428571</ele><time>2026-03-26T09:45:00.999Z</time></trkpt><trkpt lat="43.27551749348011" lon="10.78056467405268"><ele>307.2857142857143</ele><time>2026-03-26T09:45:05.999Z</time></trkpt><trkpt lat="43.275449864307575" lon="10.780580131278297"><ele>307.42857142857144</ele><time>2026-03-26T09:45:12.999Z</time></trkpt><trkpt lat="43.27539573008138" lon="10.78051463191911"><ele>307.57142857142856</ele><time>2026-03-26T09:45:19.999Z</time></trkpt><trkpt lat="43.27539915070514" lon="10.78041861116436"><ele>307.7142857142857</ele><time>2026-03-26T09:45:26Z</time></trkpt><trkpt lat="43.27539935406448" lon="10.78032789588711"><ele>307.85714285714283</ele><time>2026-03-26T09:45:29Z</time></trkpt><trkpt lat="43.27537795218095" lon="10.78024032984368"><ele>308.0</ele><time>2026-03-26T09:45:33Z</time></trkpt><trkpt lat="43.27536870712783" lon="10.780153851702691"><ele>308.0</ele><time>2026-03-26T09:45:38Z</time></trkpt><trkpt lat="43.27541275468058" lon="10.780086788957224"><ele>308.0</ele><time>2026-03-26T09:45:42Z</time></trkpt><trkpt lat="43.275482588920205" lon="10.780055912945096"><ele>308.0</ele><time>2026-03-26T09:45:48Z</time></trkpt><trkpt lat="43.275529371361536" lon="10.779979549718602"><ele>308.0</ele><time>2026-03-26T09:45:54Z</time></trkpt><trkpt lat="43.27551216107801" lon="10.779877864998793"><ele>308.0</ele><time>2026-03-26T09:46:02Z</time></trkpt><trkpt lat="43.275450263210836" lon="10.779848771952091"><ele>308.0</ele><time>2026-03-26T09:46:11Z</time></trkpt><trkpt lat="43.27538446131057" lon="10.779864001490358"><ele>308.0</ele><time>2026-03-26T09:46:15Z</time></trkpt><trkpt lat="43.27530589975186" lon="10.779873945573364"><ele>308.0</ele><time>2026-03-26T09:46:22Z</time></trkpt><trkpt lat="43.275250546833796" lon="10.779816473261148"><ele>308.0</ele><time>2026-03-26T09:46:29Z</time></trkpt><trkpt lat="43.27519345818618" lon="10.77976708182225"><ele>308.0</ele><time>2026-03-26T09:46:34.999Z</time></trkpt><trkpt lat="43.27514074620804" lon="10.779714807890286"><ele>308.0</ele><time>2026-03-26T09:46:41.999Z</time></trkpt><trkpt lat="43.275103446575294" lon="10.779644339040988"><ele>308.0</ele><time>2026-03-26T09:46:50.999Z</time></trkpt><trkpt lat="43.275087039884845" lon="10.779548181029515"><ele>308.0</ele><time>2026-03-26T09:47:00.999Z</time></trkpt><trkpt lat="43.27506695102808" lon="10.779449236019287"><ele>308.0</ele><time>2026-03-26T09:47:07.999Z</time></trkpt><trkpt lat="43.275001118046944" lon="10.77941825146867"><ele>308.0</ele><time>2026-03-26T09:47:16.999Z</time></trkpt><trkpt lat="43.274942972160304" lon="10.779462195592552"><ele>308.0</ele><time>2026-03-26T09:47:24.999Z</time></trkpt><trkpt lat="43.27486815919366" lon="10.779474133701942"><ele>308.0</ele><time>2026-03-26T09:47:33Z</time></trkpt><trkpt lat="43.27481819466587" lon="10.779527329071506"><ele>308.0</ele><time>2026-03-26T09:47:46Z</time></trkpt><trkpt lat="43.274757491098576" lon="10.779561687544058"><ele>308.0</ele><time>2026-03-26T09:47:52Z</time></trkpt><trkpt lat="43.27469958068727" lon="10.779601197816632"><ele>308.0</ele><time>2026-03-26T09:47:57Z</time></trkpt><trkpt lat="43.27463633882516" lon="10.779632585284611"><ele>308.0</ele><time>2026-03-26T09:48:02Z</time></trkpt><trkpt lat="43.27457382675113" lon="10.77966465235068"><ele>309.0</ele><time>2026-03-26T09:48:08Z</time></trkpt><trkpt lat="43.27450937048891" lon="10.779665298483177"><ele>310.0</ele><time>2026-03-26T09:48:13Z</time></trkpt><trkpt lat="43.274440055798244" lon="10.779670692763903"><ele>311.0</ele><time>2026-03-26T09:48:18Z</time></trkpt><trkpt lat="43.274369947671445" lon="10.779704324159871"><ele>312.0</ele><time>2026-03-26T09:48:26Z</time></trkpt><trkpt lat="43.27429659236253" lon="10.779735239644362"><ele>313.0</ele><time>2026-03-26T09:48:31Z</time></trkpt><trkpt lat="43.27422175882968" lon="10.779775458629342"><ele>314.0</ele><time>2026-03-26T09:48:36Z</time></trkpt><trkpt lat="43.274148329388325" lon="10.779792561890762"><ele>315.0</ele><time>2026-03-26T09:48:41.999Z</time></trkpt><trkpt lat="43.274094500824816" lon="10.779838337269535"><ele>315.0</ele><time>2026-03-26T09:48:46.999Z</time></trkpt><trkpt lat="43.27403851839128" lon="10.779882547067825"><ele>315.0</ele><time>2026-03-26T09:48:51.999Z</time></trkpt><trkpt lat="43.27396785714393" lon="10.779930414820083"><ele>315.0</ele><time>2026-03-26T09:48:57.999Z</time></trkpt><trkpt lat="43.27390671990724" lon="10.779962939338851"><ele>315.0</ele><time>2026-03-26T09:49:02.999Z</time></trkpt><trkpt lat="43.273842020057494" lon="10.779958214266767"><ele>315.0</ele><time>2026-03-26T09:49:07.999Z</time></trkpt><trkpt lat="43.27376730232454" lon="10.779960325600273"><ele>315.0</ele><time>2026-03-26T09:49:12.999Z</time></trkpt><trkpt lat="43.27369892126585" lon="10.779935774729283"><ele>315.0</ele><time>2026-03-26T09:49:18.999Z</time></trkpt><trkpt lat="43.27368874097968" lon="10.779840858129653"><ele>315.0</ele><time>2026-03-26T09:49:24.999Z</time></trkpt><trkpt lat="43.27368308686893" lon="10.779743980458726"><ele>315.0</ele><time>2026-03-26T09:49:32.999Z</time></trkpt><trkpt lat="43.273735621559524" lon="10.77967980056057"><ele>315.0</ele><time>2026-03-26T09:49:49Z</time></trkpt><trkpt lat="43.27379112334158" lon="10.779629810834782"><ele>315.0</ele><time>2026-03-26T09:50:00Z</time></trkpt><trkpt lat="43.27385077970293" lon="10.779590045243634"><ele>315.0</ele><time>2026-03-26T09:50:07Z</time></trkpt><trkpt lat="43.273912799183485" lon="10.779564816474654"><ele>315.0</ele><time>2026-03-26T09:50:25Z</time></trkpt><trkpt lat="43.2739476721329" lon="10.779492052983702"><ele>315.0</ele><time>2026-03-26T09:50:45.999Z</time></trkpt><trkpt lat="43.273988153573825" lon="10.77942416238125"><ele>315.0</ele><time>2026-03-26T09:52:13Z</time></trkpt><trkpt lat="43.274048766953975" lon="10.779384178403715"><ele>315.0</ele><time>2026-03-26T09:52:23Z</time></trkpt><trkpt lat="43.27407184950957" lon="10.77927992758146"><ele>315.0</ele><time>2026-03-26T09:52:36.999Z</time></trkpt><trkpt lat="43.27411749591417" lon="10.77920408501229"><ele>315.0</ele><time>2026-03-26T09:52:45.999Z</time></trkpt><trkpt lat="43.27415702853208" lon="10.779130454357595"><ele>315.0</ele><time>2026-03-26T09:52:54.999Z</time></trkpt><trkpt lat="43.27418624701261" lon="10.779052581388733"><ele>315.0</ele><time>2026-03-26T09:53:10.999Z</time></trkpt><trkpt lat="43.27426025618556" lon="10.77900484278699"><ele>315.0</ele><time>2026-03-26T09:53:24.999Z</time></trkpt><trkpt lat="43.274326403540236" lon="10.778943782182191"><ele>318.0</ele><time>2026-03-26T09:54:24.999Z</time></trkpt><trkpt lat="43.27433250017656" lon="10.778845946536958"><ele>321.0</ele><time>2026-03-26T09:54:32.999Z</time></trkpt><trkpt lat="43.27436236853763" lon="10.778767312174667"><ele>324.0</ele><time>2026-03-26T09:54:49.999Z</time></trkpt><trkpt lat="43.27440523365789" lon="10.778703583056991"><ele>327.0</ele><time>2026-03-26T09:54:56.999Z</time></trkpt><trkpt lat="43.27442738047662" lon="10.778616967375745"><ele>330.0</ele><time>2026-03-26T09:55:03.999Z</time></trkpt><trkpt lat="43.27448106645455" lon="10.77855156804973"><ele>333.0</ele><time>2026-03-26T09:55:08.999Z</time></trkpt><trkpt lat="43.27452107611872" lon="10.778479307300756"><ele>336.0</ele><time>2026-03-26T09:55:17.999Z</time></trkpt><trkpt lat="43.27457374784502" lon="10.77842187672036"><ele>338.0</ele><time>2026-03-26T09:55:24.999Z</time></trkpt><trkpt lat="43.27460187687652" lon="10.77832436271073"><ele>340.0</ele><time>2026-03-26T09:55:32.999Z</time></trkpt><trkpt lat="43.274608077369884" lon="10.778238263875796"><ele>342.0</ele><time>2026-03-26T09:55:38.999Z</time></trkpt><trkpt lat="43.274626175862934" lon="10.778151977760311"><ele>344.0</ele><time>2026-03-26T09:55:43.999Z</time></trkpt><trkpt lat="43.27467189085835" lon="10.778078413597768"><ele>346.0</ele><time>2026-03-26T09:55:52Z</time></trkpt><trkpt lat="43.27473095665723" lon="10.778008959273707"><ele>348.0</ele><time>2026-03-26T09:56:00Z</time></trkpt><trkpt lat="43.274778644247434" lon="10.777950635236262"><ele>350.0</ele><time>2026-03-26T09:56:15Z</time></trkpt><trkpt lat="43.27482064013957" lon="10.777878992431093"><ele>351.57142857142856</ele><time>2026-03-26T09:56:37Z</time></trkpt><trkpt lat="43.27486212165215" lon="10.777798662684104"><ele>353.1428571428571</ele><time>2026-03-26T09:56:45Z</time></trkpt><trkpt lat="43.274889469472896" lon="10.777720672823401"><ele>354.7142857142857</ele><time>2026-03-26T09:56:54Z</time></trkpt><trkpt lat="43.27491273603839" lon="10.777635018906237"><ele>356.2857142857143</ele><time>2026-03-26T09:57:02Z</time></trkpt><trkpt lat="43.27491350336841" lon="10.777541125126424"><ele>357.85714285714283</ele><time>2026-03-26T09:57:09.999Z</time></trkpt><trkpt lat="43.274884176015185" lon="10.777453878494237"><ele>359.42857142857144</ele><time>2026-03-26T09:57:17.999Z</time></trkpt><trkpt lat="43.27484378967788" lon="10.777386755911115"><ele>361.0</ele><time>2026-03-26T09:57:24.999Z</time></trkpt><trkpt lat="43.27485228545856" lon="10.777251797684231"><ele>364.14285714285717</ele><time>2026-03-26T09:59:26.999Z</time></trkpt><trkpt lat="43.274880744860276" lon="10.777163064678374"><ele>367.2857142857143</ele><time>2026-03-26T09:59:35.999Z</time></trkpt><trkpt lat="43.27489154814604" lon="10.777069921895333"><ele>370.42857142857144</ele><time>2026-03-26T09:59:44.999Z</time></trkpt><trkpt lat="43.27492364723382" lon="10.776993289969582"><ele>373.57142857142856</ele><time>2026-03-26T09:59:52.999Z</time></trkpt><trkpt lat="43.274993963993914" lon="10.777014475634724"><ele>376.71428571428567</ele><time>2026-03-26T10:00:20Z</time></trkpt><trkpt lat="43.27506817429443" lon="10.776981052596232"><ele>379.85714285714283</ele><time>2026-03-26T10:00:28Z</time></trkpt><trkpt lat="43.27513208423512" lon="10.776936371332168"><ele>383.0</ele><time>2026-03-26T10:00:37Z</time></trkpt><trkpt lat="43.27519545220814" lon="10.776918275622434"><ele>383.0</ele><time>2026-03-26T10:00:42Z</time></trkpt><trkpt lat="43.27522352126206" lon="10.776834275948644"><ele>383.0</ele><time>2026-03-26T10:00:50Z</time></trkpt><trkpt lat="43.27531272130002" lon="10.776850042402492"><ele>383.0</ele><time>2026-03-26T10:00:56Z</time></trkpt><trkpt lat="43.27537253370211" lon="10.77688447376059"><ele>383.0</ele><time>2026-03-26T10:01:04Z</time></trkpt><trkpt lat="43.27543914567124" lon="10.776851730027738"><ele>383.0</ele><time>2026-03-26T10:01:09Z</time></trkpt><trkpt lat="43.27550406659804" lon="10.776811095251867"><ele>383.0</ele><time>2026-03-26T10:01:22Z</time></trkpt><trkpt lat="43.2755528407944" lon="10.776736990669836"><ele>383.0</ele><time>2026-03-26T10:01:28.999Z</time></trkpt><trkpt lat="43.27557629582136" lon="10.77664447175183"><ele>384.7142857142857</ele><time>2026-03-26T10:01:36.999Z</time></trkpt><trkpt lat="43.275572031745554" lon="10.77655552490073"><ele>386.42857142857144</ele><time>2026-03-26T10:01:42.999Z</time></trkpt><trkpt lat="43.27557601022306" lon="10.776463744658654"><ele>388.1428571428571</ele><time>2026-03-26T10:01:48.999Z</time></trkpt><trkpt lat="43.275600996412734" lon="10.776378804758457"><ele>389.8571428571429</ele><time>2026-03-26T10:01:55.999Z</time></trkpt><trkpt lat="43.275594826401566" lon="10.776276046722344"><ele>391.5714285714286</ele><time>2026-03-26T10:02:02.999Z</time></trkpt><trkpt lat="43.27557381287818" lon="10.776186060361429"><ele>393.2857142857143</ele><time>2026-03-26T10:02:12Z</time></trkpt><trkpt lat="43.27553966573777" lon="10.776094829965686"><ele>395.0</ele><time>2026-03-26T10:02:17Z</time></trkpt><trkpt lat="43.275525962011066" lon="10.775997417426469"><ele>395.0</ele><time>2026-03-26T10:02:23Z</time></trkpt><trkpt lat="43.27553212465281" lon="10.77591131006989"><ele>395.0</ele><time>2026-03-26T10:02:27Z</time></trkpt><trkpt lat="43.27552888839965" lon="10.775824571960715"><ele>395.0</ele><time>2026-03-26T10:02:32Z</time></trkpt><trkpt lat="43.27554609623018" lon="10.775721587838369"><ele>395.0</ele><time>2026-03-26T10:02:39Z</time></trkpt><trkpt lat="43.27557174874625" lon="10.775633176357069"><ele>395.0</ele><time>2026-03-26T10:02:44Z</time></trkpt><trkpt lat="43.275602057586404" lon="10.775553095964"><ele>395.0</ele><time>2026-03-26T10:02:50Z</time></trkpt><trkpt lat="43.27565944181568" lon="10.775498566870489"><ele>395.0</ele><time>2026-03-26T10:03:27.999Z</time></trkpt><trkpt lat="43.27568861963766" lon="10.775400528982017"><ele>398.85714285714283</ele><time>2026-03-26T10:03:32.999Z</time></trkpt><trkpt lat="43.275737900106805" lon="10.77533711490144"><ele>402.7142857142857</ele><time>2026-03-26T10:03:36.999Z</time></trkpt><trkpt lat="43.275771151733494" lon="10.775245481760903"><ele>406.57142857142856</ele><time>2026-03-26T10:03:41.999Z</time></trkpt><trkpt lat="43.275773611892575" lon="10.775143373572115"><ele>410.42857142857144</ele><time>2026-03-26T10:03:47.999Z</time></trkpt><trkpt lat="43.27578910290959" lon="10.775058425566517"><ele>414.28571428571433</ele><time>2026-03-26T10:03:52.999Z</time></trkpt><trkpt lat="43.27577095163833" lon="10.774954218360643"><ele>418.14285714285717</ele><time>2026-03-26T10:04:10.999Z</time></trkpt><trkpt lat="43.275769882629604" lon="10.774851177157446"><ele>422.0</ele><time>2026-03-26T10:04:19Z</time></trkpt><trkpt lat="43.27574303145884" lon="10.774760165832811"><ele>421.99999999999994</ele><time>2026-03-26T10:05:14Z</time></trkpt><trkpt lat="43.27570245451794" lon="10.774653199403955"><ele>422.0</ele><time>2026-03-26T10:05:24.999Z</time></trkpt><trkpt lat="43.27564624792609" lon="10.77456827236311"><ele>422.0</ele><time>2026-03-26T10:05:28.999Z</time></trkpt><trkpt lat="43.27562359602833" lon="10.774470443634122"><ele>422.0</ele><time>2026-03-26T10:05:32.999Z</time></trkpt><trkpt lat="43.27554197984691" lon="10.774459208372853"><ele>421.99999999999994</ele><time>2026-03-26T10:05:37.999Z</time></trkpt><trkpt lat="43.27548185475205" lon="10.774406920908993"><ele>422.0</ele><time>2026-03-26T10:05:45.999Z</time></trkpt><trkpt lat="43.275419905595065" lon="10.774351427877995"><ele>419.7142857142857</ele><time>2026-03-26T10:06:07.999Z</time></trkpt><trkpt lat="43.275404200849884" lon="10.774250599729848"><ele>417.42857142857144</ele><time>2026-03-26T10:06:12.999Z</time></trkpt><trkpt lat="43.27536211342549" lon="10.77416151632733"><ele>415.1428571428571</ele><time>2026-03-26T10:06:16.999Z</time></trkpt><trkpt lat="43.275295752434694" lon="10.774182259944379"><ele>412.8571428571429</ele><time>2026-03-26T10:06:20.999Z</time></trkpt><trkpt lat="43.275222081363225" lon="10.774147241585995"><ele>410.57142857142856</ele><time>2026-03-26T10:06:26Z</time></trkpt><trkpt lat="43.275152088721896" lon="10.774113575136628"><ele>408.2857142857143</ele><time>2026-03-26T10:06:32Z</time></trkpt><trkpt lat="43.2750912004159" lon="10.774071799547809"><ele>406.0</ele><time>2026-03-26T10:06:37Z</time></trkpt><trkpt lat="43.2750271220832" lon="10.774038856394125"><ele>406.0</ele><time>2026-03-26T10:06:43Z</time></trkpt><trkpt lat="43.27496347124059" lon="10.774051701127483"><ele>406.0</ele><time>2026-03-26T10:06:48Z</time></trkpt><trkpt lat="43.27492437093351" lon="10.774122565518075"><ele>406.0</ele><time>2026-03-26T10:06:54Z</time></trkpt><trkpt lat="43.27488796092886" lon="10.774217569629005"><ele>406.0</ele><time>2026-03-26T10:07:00Z</time></trkpt><trkpt lat="43.2748373815028" lon="10.774280032432385"><ele>406.0</ele><time>2026-03-26T10:07:05Z</time></trkpt><trkpt lat="43.27476631010748" lon="10.774257552780794"><ele>406.0</ele><time>2026-03-26T10:07:11Z</time></trkpt><trkpt lat="43.27470088986144" lon="10.77423576428575"><ele>406.0</ele><time>2026-03-26T10:07:16Z</time></trkpt><trkpt lat="43.274635404401096" lon="10.774214884829318"><ele>405.0</ele><time>2026-03-26T10:07:21Z</time></trkpt><trkpt lat="43.27457063365427" lon="10.77420822201418"><ele>404.0</ele><time>2026-03-26T10:07:26Z</time></trkpt><trkpt lat="43.27450679704564" lon="10.774209744978188"><ele>403.0</ele><time>2026-03-26T10:07:32Z</time></trkpt><trkpt lat="43.274441459878844" lon="10.774216232262166"><ele>402.0</ele><time>2026-03-26T10:07:36.999Z</time></trkpt><trkpt lat="43.27437412916884" lon="10.774209658033692"><ele>401.0</ele><time>2026-03-26T10:07:41.999Z</time></trkpt><trkpt lat="43.2742975695019" lon="10.774187529133721"><ele>400.0</ele><time>2026-03-26T10:07:46.999Z</time></trkpt><trkpt lat="43.274229253420266" lon="10.77417548966412"><ele>399.0</ele><time>2026-03-26T10:07:51.999Z</time></trkpt><trkpt lat="43.27416702864017" lon="10.774131550463586"><ele>399.0</ele><time>2026-03-26T10:07:58.999Z</time></trkpt><trkpt lat="43.27411780099934" lon="10.774075535417046"><ele>399.0</ele><time>2026-03-26T10:08:03.999Z</time></trkpt><trkpt lat="43.27408109855932" lon="10.773996486095765"><ele>399.0</ele><time>2026-03-26T10:08:10.999Z</time></trkpt><trkpt lat="43.27403318892916" lon="10.77392779464319"><ele>399.0</ele><time>2026-03-26T10:08:16.999Z</time></trkpt><trkpt lat="43.27396612991089" lon="10.773872819154233"><ele>399.0</ele><time>2026-03-26T10:08:20.999Z</time></trkpt><trkpt lat="43.273900281415635" lon="10.773835971133506"><ele>399.0</ele><time>2026-03-26T10:08:24.999Z</time></trkpt><trkpt lat="43.27383478646634" lon="10.773777708691497"><ele>399.0</ele><time>2026-03-26T10:08:31Z</time></trkpt><trkpt lat="43.273765351261176" lon="10.773722738328356"><ele>399.3333333333333</ele><time>2026-03-26T10:08:36Z</time></trkpt><trkpt lat="43.27370762784897" lon="10.773654625662187"><ele>399.66666666666663</ele><time>2026-03-26T10:08:42Z</time></trkpt><trkpt lat="43.27368279506218" lon="10.77356637149971"><ele>400.0</ele><time>2026-03-26T10:08:50Z</time></trkpt><trkpt lat="43.273559775291055" lon="10.77356268827694"><ele>400.3333333333333</ele><time>2026-03-26T10:09:17Z</time></trkpt><trkpt lat="43.273540247509594" lon="10.77347712896619"><ele>400.66666666666663</ele><time>2026-03-26T10:09:49.999Z</time></trkpt><trkpt lat="43.27346884083274" lon="10.773448221727948"><ele>401.0</ele><time>2026-03-26T10:09:53.999Z</time></trkpt><trkpt lat="43.27342663914431" lon="10.773368941925819"><ele>401.0</ele><time>2026-03-26T10:09:58.999Z</time></trkpt><trkpt lat="43.273368221273294" lon="10.773306700989561"><ele>401.0</ele><time>2026-03-26T10:10:05.999Z</time></trkpt><trkpt lat="43.27330709592829" lon="10.7732807457636"><ele>401.0</ele><time>2026-03-26T10:10:09.999Z</time></trkpt><trkpt lat="43.27326442451157" lon="10.77321150599188"><ele>401.0</ele><time>2026-03-26T10:10:14.999Z</time></trkpt><trkpt lat="43.27323348311976" lon="10.773133838056193"><ele>401.0</ele><time>2026-03-26T10:10:19.999Z</time></trkpt><trkpt lat="43.273197604353456" lon="10.773053562651144"><ele>401.0</ele><time>2026-03-26T10:10:24.999Z</time></trkpt><trkpt lat="43.273136974855106" lon="10.772998532947229"><ele>401.0</ele><time>2026-03-26T10:10:30.999Z</time></trkpt><trkpt lat="43.27307844336832" lon="10.772944847332615"><ele>397.8571428571429</ele><time>2026-03-26T10:10:36Z</time></trkpt><trkpt lat="43.27303486912132" lon="10.772881138130147"><ele>394.7142857142857</ele><time>2026-03-26T10:10:40Z</time></trkpt><trkpt lat="43.27298447261161" lon="10.77280455624792"><ele>391.57142857142856</ele><time>2026-03-26T10:10:48Z</time></trkpt><trkpt lat="43.27294297331842" lon="10.772729974563653"><ele>388.42857142857144</ele><time>2026-03-26T10:10:54Z</time></trkpt><trkpt lat="43.27287481904442" lon="10.772753645952225"><ele>385.2857142857143</ele><time>2026-03-26T10:10:59Z</time></trkpt><trkpt lat="43.272810079045435" lon="10.77278156672365"><ele>382.14285714285717</ele><time>2026-03-26T10:11:05Z</time></trkpt><trkpt lat="43.2727498172147" lon="10.772820928745466"><ele>379.0</ele><time>2026-03-26T10:11:10Z</time></trkpt><trkpt lat="43.272683446174334" lon="10.772813027917016"><ele>379.00000000000006</ele><time>2026-03-26T10:11:14Z</time></trkpt><trkpt lat="43.27261913910391" lon="10.772792867087817"><ele>379.0</ele><time>2026-03-26T10:11:18Z</time></trkpt><trkpt lat="43.27259901485469" lon="10.772877651836806"><ele>379.0</ele><time>2026-03-26T10:11:23Z</time></trkpt><trkpt lat="43.27254417869604" lon="10.772960333248726"><ele>379.0</ele><time>2026-03-26T10:11:28Z</time></trkpt><trkpt lat="43.27249547984605" lon="10.773029875186538"><ele>379.0</ele><time>2026-03-26T10:11:34Z</time></trkpt><trkpt lat="43.27243804013946" lon="10.773072001071327"><ele>379.00000000000006</ele><time>2026-03-26T10:11:38.999Z</time></trkpt><trkpt lat="43.27236271921887" lon="10.773080374916647"><ele>379.0</ele><time>2026-03-26T10:12:01.999Z</time></trkpt><trkpt lat="43.27231135156541" lon="10.77301021869847"><ele>379.00000000000006</ele><time>2026-03-26T10:12:35.999Z</time></trkpt><trkpt lat="43.272280813307056" lon="10.772931024650145"><ele>379.0</ele><time>2026-03-26T10:12:41Z</time></trkpt><trkpt lat="43.272276686753585" lon="10.772842737016235"><ele>379.0</ele><time>2026-03-26T10:12:44Z</time></trkpt><trkpt lat="43.27225918594464" lon="10.772739411278081"><ele>379.0</ele><time>2026-03-26T10:12:52Z</time></trkpt><trkpt lat="43.27224654961474" lon="10.772638622189108"><ele>379.0</ele><time>2026-03-26T10:12:56Z</time></trkpt><trkpt lat="43.27224361802493" lon="10.772536094416912"><ele>379.00000000000006</ele><time>2026-03-26T10:13:02Z</time></trkpt><trkpt lat="43.27221285449033" lon="10.772439348870178"><ele>379.0</ele><time>2026-03-26T10:13:08Z</time></trkpt><trkpt lat="43.272190414958644" lon="10.772346562602241"><ele>375.28571428571433</ele><time>2026-03-26T10:13:13Z</time></trkpt><trkpt lat="43.27215594377637" lon="10.772253363470652"><ele>371.57142857142856</ele><time>2026-03-26T10:13:20Z</time></trkpt><trkpt lat="43.27212536116602" lon="10.772160471258312"><ele>367.8571428571429</ele><time>2026-03-26T10:13:25Z</time></trkpt><trkpt lat="43.2720790406493" lon="10.772082278334565"><ele>364.14285714285717</ele><time>2026-03-26T10:13:35Z</time></trkpt><trkpt lat="43.27207908255642" lon="10.77197483544828"><ele>360.42857142857144</ele><time>2026-03-26T10:13:40Z</time></trkpt><trkpt lat="43.272067841002" lon="10.77187616779801"><ele>356.7142857142857</ele><time>2026-03-26T10:13:45.999Z</time></trkpt><trkpt lat="43.272084160100775" lon="10.771782597067928"><ele>353.0</ele><time>2026-03-26T10:13:51.999Z</time></trkpt><trkpt lat="43.272123481154345" lon="10.771714570843091"><ele>352.57142857142856</ele><time>2026-03-26T10:13:55.999Z</time></trkpt><trkpt lat="43.272141349577524" lon="10.77161716418836"><ele>352.14285714285717</ele><time>2026-03-26T10:14:02.999Z</time></trkpt><trkpt lat="43.27211201441692" lon="10.771529184403397"><ele>351.7142857142857</ele><time>2026-03-26T10:14:37.999Z</time></trkpt><trkpt lat="43.272136178260524" lon="10.771445224894418"><ele>351.2857142857143</ele><time>2026-03-26T10:14:48Z</time></trkpt><trkpt lat="43.27217377380848" lon="10.77134673868515"><ele>350.8571428571429</ele><time>2026-03-26T10:14:54Z</time></trkpt><trkpt lat="43.272206235780224" lon="10.771268086072846"><ele>350.42857142857144</ele><time>2026-03-26T10:15:00Z</time></trkpt><trkpt lat="43.27225141467994" lon="10.771197618629822"><ele>350.0</ele><time>2026-03-26T10:15:06Z</time></trkpt><trkpt lat="43.272281844341244" lon="10.771120366566425"><ele>353.85714285714283</ele><time>2026-03-26T10:15:10Z</time></trkpt><trkpt lat="43.27230749357393" lon="10.771019744054213"><ele>357.7142857142857</ele><time>2026-03-26T10:15:16Z</time></trkpt><trkpt lat="43.27235721727044" lon="10.770965607415514"><ele>361.57142857142856</ele><time>2026-03-26T10:15:22Z</time></trkpt><trkpt lat="43.27234762687983" lon="10.770853432794363"><ele>365.42857142857144</ele><time>2026-03-26T10:15:27Z</time></trkpt><trkpt lat="43.272356689695854" lon="10.770761338719199"><ele>369.2857142857143</ele><time>2026-03-26T10:15:38Z</time></trkpt><trkpt lat="43.272364831108646" lon="10.770662948521391"><ele>373.1428571428571</ele><time>2026-03-26T10:15:45Z</time></trkpt><trkpt lat="43.27242456328284" lon="10.770598213136056"><ele>377.0</ele><time>2026-03-26T10:15:49.999Z</time></trkpt><trkpt lat="43.27245804542209" lon="10.770521418721387"><ele>376.99999999999994</ele><time>2026-03-26T10:15:54.999Z</time></trkpt><trkpt lat="43.272504971432696" lon="10.770443420228712"><ele>377.0</ele><time>2026-03-26T10:15:58.999Z</time></trkpt><trkpt lat="43.27254675720127" lon="10.77036619177486"><ele>377.0</ele><time>2026-03-26T10:16:03.999Z</time></trkpt><trkpt lat="43.272587165038594" lon="10.770255526873328"><ele>377.0</ele><time>2026-03-26T10:16:10.999Z</time></trkpt><trkpt lat="43.27260194174716" lon="10.770152020530382"><ele>377.0</ele><time>2026-03-26T10:16:18.999Z</time></trkpt><trkpt lat="43.27263257198229" lon="10.770064074012813"><ele>376.99999999999994</ele><time>2026-03-26T10:16:24.999Z</time></trkpt><trkpt lat="43.27266039364466" lon="10.769984893837547"><ele>377.0</ele><time>2026-03-26T10:16:30.999Z</time></trkpt><trkpt lat="43.27270955077233" lon="10.769929280529105"><ele>374.2857142857143</ele><time>2026-03-26T10:16:36.999Z</time></trkpt><trkpt lat="43.27272740463542" lon="10.769837512436977"><ele>371.57142857142856</ele><time>2026-03-26T10:16:42.999Z</time></trkpt><trkpt lat="43.27277351493124" lon="10.769773257753798"><ele>368.8571428571429</ele><time>2026-03-26T10:16:50.999Z</time></trkpt><trkpt lat="43.27274810400911" lon="10.76968688247903"><ele>366.1428571428571</ele><time>2026-03-26T10:16:56Z</time></trkpt><trkpt lat="43.27274730640451" lon="10.769597497522767"><ele>363.42857142857144</ele><time>2026-03-26T10:17:09Z</time></trkpt><trkpt lat="43.272750812089555" lon="10.769503210435055"><ele>360.7142857142857</ele><time>2026-03-26T10:17:16Z</time></trkpt><trkpt lat="43.27277585237596" lon="10.769421251972057"><ele>358.0</ele><time>2026-03-26T10:17:20Z</time></trkpt><trkpt lat="43.272818278820466" lon="10.769329149359296"><ele>357.00000000000006</ele><time>2026-03-26T10:17:25Z</time></trkpt><trkpt lat="43.272848719640145" lon="10.769242791193989"><ele>356.0</ele><time>2026-03-26T10:17:32Z</time></trkpt><trkpt lat="43.272869249546815" lon="10.769153552286836"><ele>355.0</ele><time>2026-03-26T10:17:35Z</time></trkpt><trkpt lat="43.27283515923865" lon="10.769070814325845"><ele>354.0</ele><time>2026-03-26T10:17:40Z</time></trkpt><trkpt lat="43.27278454646353" lon="10.769014883367655"><ele>353.0</ele><time>2026-03-26T10:17:46Z</time></trkpt><trkpt lat="43.27272244888245" lon="10.76896988815776"><ele>352.00000000000006</ele><time>2026-03-26T10:17:52Z</time></trkpt><trkpt lat="43.272650364402324" lon="10.768923778563172"><ele>351.0</ele><time>2026-03-26T10:17:57.999Z</time></trkpt><trkpt lat="43.27262862596625" lon="10.768827819014943"><ele>351.00000000000006</ele><time>2026-03-26T10:18:03.999Z</time></trkpt><trkpt lat="43.27263977052167" lon="10.768739504251311"><ele>351.0</ele><time>2026-03-26T10:18:07.999Z</time></trkpt><trkpt lat="43.27266114145107" lon="10.768642230981873"><ele>351.0</ele><time>2026-03-26T10:18:12.999Z</time></trkpt><trkpt lat="43.27270098343733" lon="10.76857042971106"><ele>351.0</ele><time>2026-03-26T10:18:18.999Z</time></trkpt><trkpt lat="43.272705326150074" lon="10.768472226409576"><ele>351.0</ele><time>2026-03-26T10:18:25.999Z</time></trkpt><trkpt lat="43.272757286627375" lon="10.76839528599203"><ele>351.00000000000006</ele><time>2026-03-26T10:18:42.999Z</time></trkpt><trkpt lat="43.27275255806188" lon="10.768307003975746"><ele>351.0</ele><time>2026-03-26T10:18:55.999Z</time></trkpt><trkpt lat="43.27280984083935" lon="10.768254208993488"><ele>352.14285714285717</ele><time>2026-03-26T10:19:01Z</time></trkpt><trkpt lat="43.272718100478556" lon="10.768235645585834"><ele>353.2857142857143</ele><time>2026-03-26T10:20:06.999Z</time></trkpt><trkpt lat="43.27265568852676" lon="10.768267049968278"><ele>354.42857142857144</ele><time>2026-03-26T10:20:12.999Z</time></trkpt><trkpt lat="43.272591521221216" lon="10.768294596644711"><ele>355.57142857142856</ele><time>2026-03-26T10:20:18.999Z</time></trkpt><trkpt lat="43.27254129093687" lon="10.76836522151903"><ele>356.7142857142857</ele><time>2026-03-26T10:20:32.999Z</time></trkpt><trkpt lat="43.27247810934611" lon="10.768366833970187"><ele>357.8571428571429</ele><time>2026-03-26T10:20:41.999Z</time></trkpt><trkpt lat="43.2724182689634" lon="10.7683299443282"><ele>359.0</ele><time>2026-03-26T10:20:50.999Z</time></trkpt><trkpt lat="43.27240251991883" lon="10.76823080590474"><ele>359.0</ele><time>2026-03-26T10:20:56.999Z</time></trkpt><trkpt lat="43.27241120235986" lon="10.768142165473197"><ele>359.0</ele><time>2026-03-26T10:21:01.999Z</time></trkpt><trkpt lat="43.272454839750594" lon="10.768065615375615"><ele>359.0</ele><time>2026-03-26T10:21:08Z</time></trkpt><trkpt lat="43.27250983170843" lon="10.76799569010117"><ele>359.0</ele><time>2026-03-26T10:21:15Z</time></trkpt><trkpt lat="43.272560402335266" lon="10.767934236599588"><ele>359.0</ele><time>2026-03-26T10:21:22Z</time></trkpt><trkpt lat="43.272597155133205" lon="10.767859384393327"><ele>359.0</ele><time>2026-03-26T10:21:29Z</time></trkpt><trkpt lat="43.27256513027527" lon="10.767782742769924"><ele>359.0</ele><time>2026-03-26T10:21:40Z</time></trkpt><trkpt lat="43.27249868995806" lon="10.767778883966791"><ele>359.0</ele><time>2026-03-26T10:21:49Z</time></trkpt><trkpt lat="43.272437254836845" lon="10.76772650855682"><ele>359.0</ele><time>2026-03-26T10:21:59Z</time></trkpt><trkpt lat="43.272420164132534" lon="10.767625136447307"><ele>359.0</ele><time>2026-03-26T10:22:04.999Z</time></trkpt><trkpt lat="43.27247655158773" lon="10.767586500967889"><ele>359.0</ele><time>2026-03-26T10:22:15.999Z</time></trkpt><trkpt lat="43.27253265846425" lon="10.76754475011525"><ele>359.0</ele><time>2026-03-26T10:22:19.999Z</time></trkpt><trkpt lat="43.272575785043536" lon="10.76747744367763"><ele>359.0</ele><time>2026-03-26T10:22:26.999Z</time></trkpt><trkpt lat="43.27259465733167" lon="10.767392956511191"><ele>359.0</ele><time>2026-03-26T10:22:35.999Z</time></trkpt><trkpt lat="43.272646343171374" lon="10.767324416003435"><ele>362.14285714285717</ele><time>2026-03-26T10:22:43.999Z</time></trkpt><trkpt lat="43.2727000860528" lon="10.767268535711496"><ele>365.28571428571433</ele><time>2026-03-26T10:22:51.999Z</time></trkpt><trkpt lat="43.27274848899059" lon="10.767202841066272"><ele>368.42857142857144</ele><time>2026-03-26T10:23:00.999Z</time></trkpt><trkpt lat="43.27281615869908" lon="10.767143842584577"><ele>371.57142857142856</ele><time>2026-03-26T10:23:08.999Z</time></trkpt><trkpt lat="43.27288296921906" lon="10.767092265712336"><ele>374.7142857142857</ele><time>2026-03-26T10:23:19Z</time></trkpt><trkpt lat="43.27295010310459" lon="10.767101069351042"><ele>377.85714285714283</ele><time>2026-03-26T10:23:31Z</time></trkpt><trkpt lat="43.27301669411655" lon="10.767118731220384"><ele>381.0</ele><time>2026-03-26T10:24:12Z</time></trkpt><trkpt lat="43.273078632154785" lon="10.767089248039166"><ele>382.0</ele><time>2026-03-26T10:24:18.999Z</time></trkpt><trkpt lat="43.27314573010426" lon="10.767065598668545"><ele>383.0</ele><time>2026-03-26T10:24:25.999Z</time></trkpt><trkpt lat="43.27323263333149" lon="10.76704089781151"><ele>384.0</ele><time>2026-03-26T10:24:35.999Z</time></trkpt><trkpt lat="43.27331047992703" lon="10.767017059537766"><ele>385.0</ele><time>2026-03-26T10:24:42.999Z</time></trkpt><trkpt lat="43.273368417860965" lon="10.76697050806349"><ele>386.0</ele><time>2026-03-26T10:24:48.999Z</time></trkpt><trkpt lat="43.27331638582944" lon="10.766896519964563"><ele>387.0</ele><time>2026-03-26T10:24:56.999Z</time></trkpt><trkpt lat="43.2732486690761" lon="10.766847076987709"><ele>389.42857142857144</ele><time>2026-03-26T10:25:03.999Z</time></trkpt><trkpt lat="43.27320010865979" lon="10.766782789495277"><ele>391.8571428571429</ele><time>2026-03-26T10:25:17Z</time></trkpt><trkpt lat="43.27316687597804" lon="10.76670126089088"><ele>394.2857142857143</ele><time>2026-03-26T10:25:24Z</time></trkpt><trkpt lat="43.27311988120351" lon="10.766633620024674"><ele>396.7142857142857</ele><time>2026-03-26T10:25:31Z</time></trkpt><trkpt lat="43.273059998667634" lon="10.766590806258135"><ele>399.1428571428571</ele><time>2026-03-26T10:25:37Z</time></trkpt><trkpt lat="43.27300643941735" lon="10.766524981081844"><ele>401.57142857142856</ele><time>2026-03-26T10:25:46Z</time></trkpt><trkpt lat="43.27295234240818" lon="10.766470414431913"><ele>404.0</ele><time>2026-03-26T10:25:52Z</time></trkpt><trkpt lat="43.272909432919874" lon="10.766396907229392"><ele>404.0</ele><time>2026-03-26T10:25:59Z</time></trkpt><trkpt lat="43.272869802908836" lon="10.766322074307206"><ele>404.0</ele><time>2026-03-26T10:26:06Z</time></trkpt><trkpt lat="43.27281019512435" lon="10.766269612908406"><ele>404.0</ele><time>2026-03-26T10:26:13.999Z</time></trkpt><trkpt lat="43.27273606815189" lon="10.766218366729621"><ele>404.0</ele><time>2026-03-26T10:26:21.999Z</time></trkpt><trkpt lat="43.27266545739452" lon="10.76622042916101"><ele>404.0</ele><time>2026-03-26T10:26:28.999Z</time></trkpt><trkpt lat="43.27260719702895" lon="10.76626186802543"><ele>404.0</ele><time>2026-03-26T10:26:40.999Z</time></trkpt><trkpt lat="43.27255658616395" lon="10.766325871070455"><ele>404.0</ele><time>2026-03-26T10:26:46.999Z</time></trkpt><trkpt lat="43.27251210758207" lon="10.766403089462788"><ele>404.0</ele><time>2026-03-26T10:26:53.999Z</time></trkpt><trkpt lat="43.27247766102929" lon="10.76647920028062"><ele>404.0</ele><time>2026-03-26T10:26:59.999Z</time></trkpt><trkpt lat="43.272428595603465" lon="10.76653864752036"><ele>404.0</ele><time>2026-03-26T10:27:04.999Z</time></trkpt><trkpt lat="43.27235787825391" lon="10.76656562938922"><ele>404.0</ele><time>2026-03-26T10:27:09.999Z</time></trkpt><trkpt lat="43.27229489352772" lon="10.76659618639854"><ele>404.0</ele><time>2026-03-26T10:27:14.999Z</time></trkpt><trkpt lat="43.27222854460351" lon="10.766595906232668"><ele>404.0</ele><time>2026-03-26T10:27:20.999Z</time></trkpt><trkpt lat="43.27216553414096" lon="10.766592094240615"><ele>404.0</ele><time>2026-03-26T10:27:26Z</time></trkpt><trkpt lat="43.27209479614349" lon="10.766586568153523"><ele>403.85714285714283</ele><time>2026-03-26T10:27:31Z</time></trkpt><trkpt lat="43.272025233246346" lon="10.766584344319929"><ele>403.71428571428567</ele><time>2026-03-26T10:27:36Z</time></trkpt><trkpt lat="43.271951110111196" lon="10.766572565789659"><ele>403.57142857142856</ele><time>2026-03-26T10:27:41Z</time></trkpt><trkpt lat="43.27187939926521" lon="10.766604616583576"><ele>403.42857142857144</ele><time>2026-03-26T10:27:46Z</time></trkpt><trkpt lat="43.2718190215495" lon="10.76664731621793"><ele>403.2857142857143</ele><time>2026-03-26T10:27:51Z</time></trkpt><trkpt lat="43.27175725759923" lon="10.766675471923767"><ele>403.14285714285717</ele><time>2026-03-26T10:27:56Z</time></trkpt><trkpt lat="43.27168829405188" lon="10.766701740194002"><ele>403.0</ele><time>2026-03-26T10:28:01Z</time></trkpt><trkpt lat="43.27162762230989" lon="10.766671580476034"><ele>403.0</ele><time>2026-03-26T10:28:06Z</time></trkpt><trkpt lat="43.271568252934976" lon="10.766728568197651"><ele>403.0</ele><time>2026-03-26T10:28:13Z</time></trkpt><trkpt lat="43.2715413682696" lon="10.766817933352845"><ele>403.0</ele><time>2026-03-26T10:28:20.999Z</time></trkpt><trkpt lat="43.27153970392299" lon="10.766919083532141"><ele>403.0</ele><time>2026-03-26T10:28:27.999Z</time></trkpt><trkpt lat="43.27149023123701" lon="10.766994436462175"><ele>403.0</ele><time>2026-03-26T10:28:34.999Z</time></trkpt><trkpt lat="43.27143376115358" lon="10.767068845309323"><ele>403.0</ele><time>2026-03-26T10:28:39.999Z</time></trkpt><trkpt lat="43.271371427473646" lon="10.767094778784513"><ele>403.0</ele><time>2026-03-26T10:28:45.999Z</time></trkpt><trkpt lat="43.27130978182123" lon="10.767132675061717"><ele>401.14285714285717</ele><time>2026-03-26T10:28:51.999Z</time></trkpt><trkpt lat="43.271312497587395" lon="10.767221512436159"><ele>399.2857142857143</ele><time>2026-03-26T10:28:58.999Z</time></trkpt><trkpt lat="43.2712684828516" lon="10.767305647126864"><ele>397.42857142857144</ele><time>2026-03-26T10:29:04.999Z</time></trkpt><trkpt lat="43.27121523299619" lon="10.767367485712873"><ele>395.57142857142856</ele><time>2026-03-26T10:29:13.999Z</time></trkpt><trkpt lat="43.27116152796356" lon="10.767421571729354"><ele>393.71428571428567</ele><time>2026-03-26T10:29:19.999Z</time></trkpt><trkpt lat="43.271104722913" lon="10.767469428396284"><ele>391.85714285714283</ele><time>2026-03-26T10:29:22.999Z</time></trkpt><trkpt lat="43.271037979243125" lon="10.767527523637954"><ele>390.0</ele><time>2026-03-26T10:29:25.999Z</time></trkpt><trkpt lat="43.270957859879246" lon="10.767559538192168"><ele>390.0</ele><time>2026-03-26T10:29:29Z</time></trkpt><trkpt lat="43.27088043811444" lon="10.767595087806823"><ele>390.0</ele><time>2026-03-26T10:29:31Z</time></trkpt><trkpt lat="43.270815728303575" lon="10.767633529425815"><ele>390.0</ele><time>2026-03-26T10:29:34Z</time></trkpt><trkpt lat="43.27077643407384" lon="10.767719436604654"><ele>390.0</ele><time>2026-03-26T10:29:39Z</time></trkpt><trkpt lat="43.270737226362506" lon="10.767787885214602"><ele>390.0</ele><time>2026-03-26T10:29:47Z</time></trkpt><trkpt lat="43.27067186343486" lon="10.767800936736089"><ele>390.0</ele><time>2026-03-26T10:30:04Z</time></trkpt><trkpt lat="43.2706187134031" lon="10.76784851252218"><ele>390.0</ele><time>2026-03-26T10:30:08Z</time></trkpt><trkpt lat="43.27057871033526" lon="10.767921155625835"><ele>388.2857142857143</ele><time>2026-03-26T10:30:11Z</time></trkpt><trkpt lat="43.270514658567535" lon="10.767906233569898"><ele>386.57142857142856</ele><time>2026-03-26T10:30:14Z</time></trkpt><trkpt lat="43.270500040416536" lon="10.768004967980502"><ele>384.8571428571429</ele><time>2026-03-26T10:30:19Z</time></trkpt><trkpt lat="43.270526387250506" lon="10.768093642241228"><ele>383.1428571428571</ele><time>2026-03-26T10:30:23Z</time></trkpt><trkpt lat="43.27056378603263" lon="10.76817471121198"><ele>381.42857142857144</ele><time>2026-03-26T10:30:26.999Z</time></trkpt><trkpt lat="43.27062502021517" lon="10.768204534042505"><ele>379.7142857142857</ele><time>2026-03-26T10:30:30.999Z</time></trkpt><trkpt lat="43.27067067135559" lon="10.768264996487188"><ele>378.0</ele><time>2026-03-26T10:30:36.999Z</time></trkpt><trkpt lat="43.270732312304624" lon="10.768288539824356"><ele>378.0</ele><time>2026-03-26T10:30:41.999Z</time></trkpt><trkpt lat="43.27081341069044" lon="10.768325405705927"><ele>378.0</ele><time>2026-03-26T10:30:46.999Z</time></trkpt><trkpt lat="43.27088605311161" lon="10.768343694625091"><ele>378.0</ele><time>2026-03-26T10:30:50.999Z</time></trkpt><trkpt lat="43.27095486024229" lon="10.768353506950824"><ele>378.0</ele><time>2026-03-26T10:30:54.999Z</time></trkpt><trkpt lat="43.27096311911866" lon="10.768444993742387"><ele>378.0</ele><time>2026-03-26T10:31:00.999Z</time></trkpt><trkpt lat="43.27090651109479" lon="10.768521138721198"><ele>378.0</ele><time>2026-03-26T10:31:04.999Z</time></trkpt><trkpt lat="43.27085151167344" lon="10.768571946760982"><ele>378.0</ele><time>2026-03-26T10:31:08.999Z</time></trkpt><trkpt lat="43.27079777366431" lon="10.768618770983366"><ele>374.2857142857143</ele><time>2026-03-26T10:31:12.999Z</time></trkpt><trkpt lat="43.270755142235785" lon="10.768693308181694"><ele>370.57142857142856</ele><time>2026-03-26T10:31:16.999Z</time></trkpt><trkpt lat="43.27070283064737" lon="10.76876488247042"><ele>366.8571428571429</ele><time>2026-03-26T10:31:21.999Z</time></trkpt><trkpt lat="43.270649412784145" lon="10.768819603671261"><ele>363.1428571428571</ele><time>2026-03-26T10:31:25.999Z</time></trkpt><trkpt lat="43.270589889715204" lon="10.768854495614761"><ele>359.42857142857144</ele><time>2026-03-26T10:31:29.999Z</time></trkpt><trkpt lat="43.27055377461416" lon="10.768925414909575"><ele>355.7142857142857</ele><time>2026-03-26T10:31:44Z</time></trkpt><trkpt lat="43.27050792852579" lon="10.769000323919071"><ele>352.0</ele><time>2026-03-26T10:31:51Z</time></trkpt><trkpt lat="43.2704532823437" lon="10.769044473072814"><ele>350.42857142857144</ele><time>2026-03-26T10:32:04Z</time></trkpt><trkpt lat="43.2703941822944" lon="10.769093269083235"><ele>348.85714285714283</ele><time>2026-03-26T10:32:16Z</time></trkpt><trkpt lat="43.270325864573984" lon="10.769079184433412"><ele>347.2857142857143</ele><time>2026-03-26T10:32:57.999Z</time></trkpt><trkpt lat="43.27026031837729" lon="10.769070595565507"><ele>345.7142857142857</ele><time>2026-03-26T10:33:02.999Z</time></trkpt><trkpt lat="43.270204504169456" lon="10.769130434155342"><ele>344.14285714285717</ele><time>2026-03-26T10:33:14.999Z</time></trkpt><trkpt lat="43.27013227512769" lon="10.769136644967489"><ele>342.57142857142856</ele><time>2026-03-26T10:33:17.999Z</time></trkpt><trkpt lat="43.27006382066357" lon="10.769063602940381"><ele>341.0</ele><time>2026-03-26T10:33:23.999Z</time></trkpt><trkpt lat="43.26999508306516" lon="10.76900192024576"><ele>341.0</ele><time>2026-03-26T10:33:24.999Z</time></trkpt><trkpt lat="43.269942408431525" lon="10.768940200032523"><ele>341.0</ele><time>2026-03-26T10:33:28.999Z</time></trkpt><trkpt lat="43.26988143746972" lon="10.768894285927862"><ele>341.0</ele><time>2026-03-26T10:33:32.999Z</time></trkpt><trkpt lat="43.269811501207336" lon="10.768896760043061"><ele>341.0</ele><time>2026-03-26T10:33:50Z</time></trkpt><trkpt lat="43.2697415364707" lon="10.768919418778845"><ele>341.0</ele><time>2026-03-26T10:33:58Z</time></trkpt><trkpt lat="43.26970065063929" lon="10.768847880467206"><ele>341.0</ele><time>2026-03-26T10:34:04Z</time></trkpt><trkpt lat="43.26969365085173" lon="10.768749260002751"><ele>341.0</ele><time>2026-03-26T10:34:09Z</time></trkpt><trkpt lat="43.269720388654875" lon="10.76865726995542"><ele>336.57142857142856</ele><time>2026-03-26T10:34:13Z</time></trkpt><trkpt lat="43.26971098845402" lon="10.768562538157976"><ele>332.14285714285717</ele><time>2026-03-26T10:34:18Z</time></trkpt><trkpt lat="43.26970914887314" lon="10.768459749703293"><ele>327.7142857142857</ele><time>2026-03-26T10:34:25Z</time></trkpt><trkpt lat="43.26968761803504" lon="10.768366536929552"><ele>323.2857142857143</ele><time>2026-03-26T10:34:31Z</time></trkpt><trkpt lat="43.26963374133735" lon="10.76831243062303"><ele>318.85714285714283</ele><time>2026-03-26T10:34:37Z</time></trkpt><trkpt lat="43.269602246469844" lon="10.768236148554314"><ele>314.42857142857144</ele><time>2026-03-26T10:34:39.999Z</time></trkpt><trkpt lat="43.26956886866069" lon="10.768145857147212"><ele>310.0</ele><time>2026-03-26T10:34:46.999Z</time></trkpt><trkpt lat="43.269563516660796" lon="10.768049865923745"><ele>310.0</ele><time>2026-03-26T10:34:51.999Z</time></trkpt><trkpt lat="43.269561496534656" lon="10.767961448781325"><ele>310.0</ele><time>2026-03-26T10:34:55.999Z</time></trkpt><trkpt lat="43.26956292409479" lon="10.767869500881332"><ele>310.0</ele><time>2026-03-26T10:35:00.999Z</time></trkpt><trkpt lat="43.26953648933865" lon="10.767781281175138"><ele>310.0</ele><time>2026-03-26T10:35:04.999Z</time></trkpt><trkpt lat="43.269493747593096" lon="10.767706243843964"><ele>310.0</ele><time>2026-03-26T10:35:08.999Z</time></trkpt><trkpt lat="43.269458289654985" lon="10.767629215350725"><ele>310.0</ele><time>2026-03-26T10:35:14.999Z</time></trkpt><trkpt lat="43.26943854327576" lon="10.767537682296467"><ele>310.0</ele><time>2026-03-26T10:35:20.999Z</time></trkpt><trkpt lat="43.26942470116287" lon="10.767452745559227"><ele>310.8571428571429</ele><time>2026-03-26T10:35:24.999Z</time></trkpt><trkpt lat="43.269394786121744" lon="10.767352642913625"><ele>311.7142857142857</ele><time>2026-03-26T10:35:30.999Z</time></trkpt><trkpt lat="43.269359496893735" lon="10.767268910724693"><ele>312.57142857142856</ele><time>2026-03-26T10:35:34.999Z</time></trkpt><trkpt lat="43.26930386927903" lon="10.767205061340093"><ele>313.42857142857144</ele><time>2026-03-26T10:35:39.999Z</time></trkpt><trkpt lat="43.26926326188677" lon="10.767137510724156"><ele>314.2857142857143</ele><time>2026-03-26T10:35:44.999Z</time></trkpt><trkpt lat="43.269209042124096" lon="10.767082337294804"><ele>315.14285714285717</ele><time>2026-03-26T10:35:50Z</time></trkpt><trkpt lat="43.269127828307354" lon="10.767083739426983"><ele>316.0</ele><time>2026-03-26T10:36:06Z</time></trkpt><trkpt lat="43.269060915387186" lon="10.767115414959072"><ele>316.00000000000006</ele><time>2026-03-26T10:36:24Z</time></trkpt><trkpt lat="43.26900147192042" lon="10.767200003373624"><ele>316.0</ele><time>2026-03-26T10:36:30Z</time></trkpt><trkpt lat="43.2689384821584" lon="10.767216138072758"><ele>316.0</ele><time>2026-03-26T10:36:36Z</time></trkpt><trkpt lat="43.26888023660225" lon="10.767252134821364"><ele>316.0</ele><time>2026-03-26T10:36:43Z</time></trkpt><trkpt lat="43.26880424481104" lon="10.767305366538876"><ele>316.0</ele><time>2026-03-26T10:36:49Z</time></trkpt><trkpt lat="43.26874528414552" lon="10.767338135462097"><ele>316.00000000000006</ele><time>2026-03-26T10:36:54Z</time></trkpt><trkpt lat="43.268707798490404" lon="10.76740794148178"><ele>316.0</ele><time>2026-03-26T10:36:59.999Z</time></trkpt><trkpt lat="43.26867048164509" lon="10.767500625005148"><ele>312.14285714285717</ele><time>2026-03-26T10:37:05.999Z</time></trkpt><trkpt lat="43.268637978061264" lon="10.767582638036583"><ele>308.2857142857143</ele><time>2026-03-26T10:37:11.999Z</time></trkpt><trkpt lat="43.268643930325354" lon="10.767685625436746"><ele>304.42857142857144</ele><time>2026-03-26T10:37:25.999Z</time></trkpt><trkpt lat="43.26865369268436" lon="10.767782698778365"><ele>300.57142857142856</ele><time>2026-03-26T10:37:29.999Z</time></trkpt><trkpt lat="43.268602944369185" lon="10.767845845883485"><ele>296.7142857142857</ele><time>2026-03-26T10:37:42.999Z</time></trkpt><trkpt lat="43.26854603918537" lon="10.767890084473107"><ele>292.8571428571429</ele><time>2026-03-26T10:37:48.999Z</time></trkpt><trkpt lat="43.2684785167274" lon="10.767895733850267"><ele>289.0</ele><time>2026-03-26T10:37:58Z</time></trkpt><trkpt lat="43.26840002880424" lon="10.76787253510393"><ele>289.0</ele><time>2026-03-26T10:38:04Z</time></trkpt><trkpt lat="43.26833534798575" lon="10.767872140483485"><ele>289.0</ele><time>2026-03-26T10:38:10Z</time></trkpt><trkpt lat="43.2682744480121" lon="10.767845136111722"><ele>289.0</ele><time>2026-03-26T10:38:14Z</time></trkpt><trkpt lat="43.268253540409106" lon="10.767750568526115"><ele>289.0</ele><time>2026-03-26T10:38:21Z</time></trkpt><trkpt lat="43.26825608923842" lon="10.767655125531627"><ele>289.0</ele><time>2026-03-26T10:38:26Z</time></trkpt><trkpt lat="43.26823407159775" lon="10.767570378613255"><ele>289.0</ele><time>2026-03-26T10:38:34Z</time></trkpt><trkpt lat="43.268212329881294" lon="10.76748701953575"><ele>289.0</ele><time>2026-03-26T10:38:40Z</time></trkpt><trkpt lat="43.268148464157186" lon="10.767455620636369"><ele>289.57142857142856</ele><time>2026-03-26T10:39:03.999Z</time></trkpt><trkpt lat="43.26809250951598" lon="10.767499850622555"><ele>290.1428571428571</ele><time>2026-03-26T10:39:08.999Z</time></trkpt><trkpt lat="43.268088614724114" lon="10.767586795681224"><ele>290.71428571428567</ele><time>2026-03-26T10:39:12.999Z</time></trkpt><trkpt lat="43.268041459864094" lon="10.767665392559236"><ele>291.2857142857143</ele><time>2026-03-26T10:39:20.999Z</time></trkpt><trkpt lat="43.267975668667766" lon="10.767678014029402"><ele>291.85714285714283</ele><time>2026-03-26T10:39:25.999Z</time></trkpt><trkpt lat="43.26792543572995" lon="10.767611135117315"><ele>292.4285714285714</ele><time>2026-03-26T10:39:34.999Z</time></trkpt><trkpt lat="43.26791992623086" lon="10.767512733030074"><ele>293.0</ele><time>2026-03-26T10:39:55.999Z</time></trkpt><trkpt lat="43.26791499508772" lon="10.767418305536275"><ele>292.99999999999994</ele><time>2026-03-26T10:40:05Z</time></trkpt><trkpt lat="43.26793719776144" lon="10.767328516441808"><ele>293.0</ele><time>2026-03-26T10:40:13Z</time></trkpt><trkpt lat="43.26791637438059" lon="10.767244642029427"><ele>293.0</ele><time>2026-03-26T10:40:24Z</time></trkpt><trkpt lat="43.26789314668737" lon="10.767149612225573"><ele>293.0</ele><time>2026-03-26T10:40:28Z</time></trkpt><trkpt lat="43.267856716464614" lon="10.767071145944568"><ele>293.0</ele><time>2026-03-26T10:40:34Z</time></trkpt><trkpt lat="43.26782664567596" lon="10.766993228920436"><ele>292.99999999999994</ele><time>2026-03-26T10:40:41Z</time></trkpt><trkpt lat="43.26780507953643" lon="10.766900262268685"><ele>293.0</ele><time>2026-03-26T10:40:53Z</time></trkpt><trkpt lat="43.26780424227278" lon="10.766802650116485"><ele>293.1428571428571</ele><time>2026-03-26T10:41:01Z</time></trkpt><trkpt lat="43.26777787579145" lon="10.766721636942073"><ele>293.2857142857143</ele><time>2026-03-26T10:41:10.999Z</time></trkpt><trkpt lat="43.267769782878894" lon="10.766615503527936"><ele>293.42857142857144</ele><time>2026-03-26T10:41:30.999Z</time></trkpt><trkpt lat="43.26778352612667" lon="10.766518807860173"><ele>293.57142857142856</ele><time>2026-03-26T10:41:38.999Z</time></trkpt><trkpt lat="43.267854087047745" lon="10.766504090134989"><ele>293.7142857142857</ele><time>2026-03-26T10:41:47.999Z</time></trkpt><trkpt lat="43.26791995409457" lon="10.766483295744566"><ele>293.85714285714283</ele><time>2026-03-26T10:41:54.999Z</time></trkpt><trkpt lat="43.26798401061867" lon="10.766479746376541"><ele>294.0</ele><time>2026-03-26T10:42:01.999Z</time></trkpt><trkpt lat="43.268031784373825" lon="10.76641796342879"><ele>294.0</ele><time>2026-03-26T10:42:09Z</time></trkpt><trkpt lat="43.268076232321256" lon="10.7663477581669"><ele>294.0</ele><time>2026-03-26T10:42:15Z</time></trkpt><trkpt lat="43.2680784688957" lon="10.766257923962762"><ele>294.0</ele><time>2026-03-26T10:42:22Z</time></trkpt><trkpt lat="43.26809659264431" lon="10.766168933039554"><ele>294.0</ele><time>2026-03-26T10:42:28Z</time></trkpt><trkpt lat="43.26807548529773" lon="10.7660847334498"><ele>294.0</ele><time>2026-03-26T10:42:33Z</time></trkpt><trkpt lat="43.26802873332094" lon="10.76602442244417"><ele>294.0</ele><time>2026-03-26T10:42:38Z</time></trkpt><trkpt lat="43.26796303014709" lon="10.765967834253205"><ele>294.0</ele><time>2026-03-26T10:42:44Z</time></trkpt><trkpt lat="43.26790841423075" lon="10.765910383067666"><ele>296.57142857142856</ele><time>2026-03-26T10:42:49Z</time></trkpt><trkpt lat="43.267855746059624" lon="10.765857727691502"><ele>299.1428571428571</ele><time>2026-03-26T10:42:55Z</time></trkpt><trkpt lat="43.26780348431852" lon="10.765803592211999"><ele>301.7142857142857</ele><time>2026-03-26T10:43:10.999Z</time></trkpt><trkpt lat="43.267743551394254" lon="10.765747890355659"><ele>304.2857142857143</ele><time>2026-03-26T10:43:15.999Z</time></trkpt><trkpt lat="43.267691034646894" lon="10.765684991163834"><ele>306.85714285714283</ele><time>2026-03-26T10:43:20.999Z</time></trkpt><trkpt lat="43.26762870124313" lon="10.765641849355877"><ele>309.42857142857144</ele><time>2026-03-26T10:43:24.999Z</time></trkpt><trkpt lat="43.267589454948734" lon="10.765557337301239"><ele>312.0</ele><time>2026-03-26T10:43:31.999Z</time></trkpt><trkpt lat="43.26755867048221" lon="10.765477346554789"><ele>312.0</ele><time>2026-03-26T10:43:36.999Z</time></trkpt><trkpt lat="43.2675032899988" lon="10.765427265528803"><ele>312.0</ele><time>2026-03-26T10:43:42.999Z</time></trkpt><trkpt lat="43.26743911532255" lon="10.76543761934837"><ele>312.0</ele><time>2026-03-26T10:43:49.999Z</time></trkpt><trkpt lat="43.26736053893615" lon="10.765493679594988"><ele>312.0</ele><time>2026-03-26T10:43:58.999Z</time></trkpt><trkpt lat="43.267294208227845" lon="10.765520192322048"><ele>312.0</ele><time>2026-03-26T10:44:06.999Z</time></trkpt><trkpt lat="43.26722227119836" lon="10.765534069021713"><ele>312.0</ele><time>2026-03-26T10:44:13Z</time></trkpt><trkpt lat="43.267157473966435" lon="10.765486747676684"><ele>312.0</ele><time>2026-03-26T10:44:19Z</time></trkpt><trkpt lat="43.26709929283096" lon="10.765452016342657"><ele>312.7142857142857</ele><time>2026-03-26T10:44:24Z</time></trkpt><trkpt lat="43.26703127434726" lon="10.765410084987192"><ele>313.4285714285714</ele><time>2026-03-26T10:44:31Z</time></trkpt><trkpt lat="43.266973646334975" lon="10.765349649244625"><ele>314.1428571428571</ele><time>2026-03-26T10:44:37Z</time></trkpt><trkpt lat="43.26691181533019" lon="10.765315658146362"><ele>314.8571428571429</ele><time>2026-03-26T10:44:42Z</time></trkpt><trkpt lat="43.26685255301906" lon="10.765256264428864"><ele>315.57142857142856</ele><time>2026-03-26T10:44:48Z</time></trkpt><trkpt lat="43.26680089541062" lon="10.765206354017712"><ele>316.2857142857143</ele><time>2026-03-26T10:44:54Z</time></trkpt><trkpt lat="43.266730802796616" lon="10.765153652003088"><ele>317.0</ele><time>2026-03-26T10:45:01Z</time></trkpt><trkpt lat="43.266676392578525" lon="10.765109391705158"><ele>317.0</ele><time>2026-03-26T10:45:07Z</time></trkpt><trkpt lat="43.2666157268485" lon="10.765061604078445"><ele>317.0</ele><time>2026-03-26T10:45:16.999Z</time></trkpt><trkpt lat="43.26655961153899" lon="10.765013877902904"><ele>317.0</ele><time>2026-03-26T10:45:25.999Z</time></trkpt><trkpt lat="43.26650115656515" lon="10.764945911060458"><ele>317.0</ele><time>2026-03-26T10:45:31.999Z</time></trkpt><trkpt lat="43.266450112212986" lon="10.764877134574336"><ele>317.0</ele><time>2026-03-26T10:45:37.999Z</time></trkpt><trkpt lat="43.26639201751454" lon="10.764827129273682"><ele>317.0</ele><time>2026-03-26T10:45:43.999Z</time></trkpt><trkpt lat="43.2663392959045" lon="10.764773462010584"><ele>317.0</ele><time>2026-03-26T10:45:50.999Z</time></trkpt><trkpt lat="43.26632644926811" lon="10.764675690521337"><ele>316.0</ele><time>2026-03-26T10:45:57.999Z</time></trkpt><trkpt lat="43.26636576600196" lon="10.76460332952631"><ele>315.0</ele><time>2026-03-26T10:46:02.999Z</time></trkpt><trkpt lat="43.2663936233633" lon="10.76451572121018"><ele>314.0</ele><time>2026-03-26T10:46:10.999Z</time></trkpt><trkpt lat="43.266410212841016" lon="10.764428604269856"><ele>313.0</ele><time>2026-03-26T10:46:16Z</time></trkpt><trkpt lat="43.26642810046295" lon="10.764340207670536"><ele>312.0</ele><time>2026-03-26T10:46:23Z</time></trkpt><trkpt lat="43.266476472860695" lon="10.764270393658803"><ele>311.0</ele><time>2026-03-26T10:46:32Z</time></trkpt><trkpt lat="43.26654252845077" lon="10.764216518571482"><ele>310.0</ele><time>2026-03-26T10:46:41Z</time></trkpt><trkpt lat="43.266608642780426" lon="10.764195727528088"><ele>312.7142857142857</ele><time>2026-03-26T10:46:49Z</time></trkpt><trkpt lat="43.266676934893376" lon="10.764200929589697"><ele>315.42857142857144</ele><time>2026-03-26T10:47:20.999Z</time></trkpt><trkpt lat="43.26675548829396" lon="10.764191489327589"><ele>318.1428571428571</ele><time>2026-03-26T10:47:26.999Z</time></trkpt><trkpt lat="43.26682273575513" lon="10.764156504950723"><ele>320.8571428571429</ele><time>2026-03-26T10:47:34.999Z</time></trkpt><trkpt lat="43.26688656423861" lon="10.764133888846242"><ele>323.57142857142856</ele><time>2026-03-26T10:47:39.999Z</time></trkpt><trkpt lat="43.26695855059465" lon="10.764133993995708"><ele>326.2857142857143</ele><time>2026-03-26T10:47:46.999Z</time></trkpt><trkpt lat="43.2670319287999" lon="10.764133981413783"><ele>329.0</ele><time>2026-03-26T10:47:54.999Z</time></trkpt><trkpt lat="43.26709551633735" lon="10.764083448926172"><ele>329.0</ele><time>2026-03-26T10:48:08.999Z</time></trkpt><trkpt lat="43.26716476134395" lon="10.764038894569092"><ele>329.0</ele><time>2026-03-26T10:48:15.999Z</time></trkpt><trkpt lat="43.26723286576726" lon="10.764005615087934"><ele>329.0</ele><time>2026-03-26T10:48:24Z</time></trkpt><trkpt lat="43.267299584149335" lon="10.76398693320008"><ele>329.0</ele><time>2026-03-26T10:48:33Z</time></trkpt><trkpt lat="43.267372187407716" lon="10.76399125428356"><ele>329.0</ele><time>2026-03-26T10:48:41Z</time></trkpt><trkpt lat="43.26744335270588" lon="10.763977696384105"><ele>329.0</ele><time>2026-03-26T10:48:48Z</time></trkpt><trkpt lat="43.26750690499763" lon="10.763930278777176"><ele>329.0</ele><time>2026-03-26T10:48:55Z</time></trkpt><trkpt lat="43.26755726049174" lon="10.763855635151321"><ele>332.0</ele><time>2026-03-26T10:49:10Z</time></trkpt><trkpt lat="43.26762340429151" lon="10.763804200275038"><ele>335.0</ele><time>2026-03-26T10:49:17Z</time></trkpt><trkpt lat="43.26768955247591" lon="10.76380313948499"><ele>338.0</ele><time>2026-03-26T10:49:24Z</time></trkpt><trkpt lat="43.26775716364574" lon="10.763808467274709"><ele>341.0</ele><time>2026-03-26T10:49:30.999Z</time></trkpt><trkpt lat="43.26780522762879" lon="10.763750897371619"><ele>344.0</ele><time>2026-03-26T10:49:37.999Z</time></trkpt><trkpt lat="43.26784127655034" lon="10.763657286992702"><ele>347.0</ele><time>2026-03-26T10:49:59.999Z</time></trkpt><trkpt lat="43.26786452430241" lon="10.763576087994812"><ele>350.0</ele><time>2026-03-26T10:50:06.999Z</time></trkpt><trkpt lat="43.26790016605778" lon="10.76349677353331"><ele>350.42857142857144</ele><time>2026-03-26T10:50:13.999Z</time></trkpt><trkpt lat="43.26794827659606" lon="10.763437553664708"><ele>350.8571428571429</ele><time>2026-03-26T10:50:23.999Z</time></trkpt><trkpt lat="43.2680198659455" lon="10.763389469955968"><ele>351.2857142857143</ele><time>2026-03-26T10:50:54Z</time></trkpt><trkpt lat="43.26807438640303" lon="10.763336551412362"><ele>351.7142857142857</ele><time>2026-03-26T10:51:02Z</time></trkpt><trkpt lat="43.26813625480237" lon="10.763292419349044"><ele>352.14285714285717</ele><time>2026-03-26T10:51:11Z</time></trkpt><trkpt lat="43.26819639816275" lon="10.763339538938128"><ele>352.57142857142856</ele><time>2026-03-26T10:51:20Z</time></trkpt><trkpt lat="43.26825692431307" lon="10.763372682043006"><ele>353.0</ele><time>2026-03-26T10:51:27Z</time></trkpt><trkpt lat="43.26831270215849" lon="10.763443679602243"><ele>355.2857142857143</ele><time>2026-03-26T10:52:02.999Z</time></trkpt><trkpt lat="43.268365348249304" lon="10.763499252070032"><ele>357.5714285714286</ele><time>2026-03-26T10:52:08.999Z</time></trkpt><trkpt lat="43.26846456270523" lon="10.763512625483681"><ele>359.8571428571429</ele><time>2026-03-26T10:52:16.999Z</time></trkpt><trkpt lat="43.2685267339644" lon="10.76354239144123"><ele>362.1428571428571</ele><time>2026-03-26T10:52:23.999Z</time></trkpt><trkpt lat="43.2685874289619" lon="10.763510649464129"><ele>364.42857142857144</ele><time>2026-03-26T10:52:32.999Z</time></trkpt><trkpt lat="43.26866492872681" lon="10.76348255534286"><ele>366.7142857142857</ele><time>2026-03-26T10:52:59Z</time></trkpt><trkpt lat="43.26873210528622" lon="10.76348231832046"><ele>369.0</ele><time>2026-03-26T10:53:06Z</time></trkpt><trkpt lat="43.26881535995424" lon="10.763435321389162"><ele>369.7142857142857</ele><time>2026-03-26T10:53:16Z</time></trkpt><trkpt lat="43.26888419167188" lon="10.76345083127715"><ele>370.42857142857144</ele><time>2026-03-26T10:53:23Z</time></trkpt><trkpt lat="43.268949355088616" lon="10.763482101235727"><ele>371.1428571428571</ele><time>2026-03-26T10:53:33Z</time></trkpt><trkpt lat="43.26901798179385" lon="10.763466975369838"><ele>371.8571428571429</ele><time>2026-03-26T10:53:38.999Z</time></trkpt><trkpt lat="43.269081361392054" lon="10.763481973867776"><ele>372.5714285714286</ele><time>2026-03-26T10:53:44.999Z</time></trkpt><trkpt lat="43.26914596240543" lon="10.763478642562532"><ele>373.2857142857143</ele><time>2026-03-26T10:53:51.999Z</time></trkpt><trkpt lat="43.26920969968264" lon="10.7635123776961"><ele>374.0</ele><time>2026-03-26T10:53:59.999Z</time></trkpt><trkpt lat="43.26927470383711" lon="10.763526650952391"><ele>376.1428571428571</ele><time>2026-03-26T10:54:04.999Z</time></trkpt><trkpt lat="43.269341296307154" lon="10.7635288942989"><ele>378.28571428571433</ele><time>2026-03-26T10:54:11.999Z</time></trkpt><trkpt lat="43.269411545285685" lon="10.763532114347786"><ele>380.42857142857144</ele><time>2026-03-26T10:54:21.999Z</time></trkpt><trkpt lat="43.26947505496738" lon="10.763492186827051"><ele>382.57142857142856</ele><time>2026-03-26T10:54:28.999Z</time></trkpt><trkpt lat="43.2695358199205" lon="10.76346639698376"><ele>384.71428571428567</ele><time>2026-03-26T10:54:34.999Z</time></trkpt><trkpt lat="43.2696004496902" lon="10.763437476208054"><ele>386.8571428571429</ele><time>2026-03-26T10:54:41Z</time></trkpt><trkpt lat="43.2696436429489" lon="10.76336835990164"><ele>389.0</ele><time>2026-03-26T10:55:12Z</time></trkpt><trkpt lat="43.26969289609285" lon="10.763312010216248"><ele>390.2857142857143</ele><time>2026-03-26T10:55:19Z</time></trkpt><trkpt lat="43.26975196409827" lon="10.763253870663101"><ele>391.57142857142856</ele><time>2026-03-26T10:55:27Z</time></trkpt><trkpt lat="43.26978540372596" lon="10.763162798888075"><ele>392.85714285714283</ele><time>2026-03-26T10:55:34Z</time></trkpt><trkpt lat="43.269828961986626" lon="10.763089639732899"><ele>394.1428571428571</ele><time>2026-03-26T10:55:43Z</time></trkpt><trkpt lat="43.26983042025683" lon="10.763000990538721"><ele>395.42857142857144</ele><time>2026-03-26T10:55:51Z</time></trkpt><trkpt lat="43.26983763034109" lon="10.762898431689742"><ele>396.71428571428567</ele><time>2026-03-26T10:55:57.999Z</time></trkpt><trkpt lat="43.269847699048505" lon="10.762800741379154"><ele>398.0</ele><time>2026-03-26T10:56:04.999Z</time></trkpt><trkpt lat="43.269861220701785" lon="10.762708786093823"><ele>401.71428571428567</ele><time>2026-03-26T10:56:10.999Z</time></trkpt><trkpt lat="43.26987483758414" lon="10.762608605091414"><ele>405.42857142857144</ele><time>2026-03-26T10:56:16.999Z</time></trkpt><trkpt lat="43.26989343568855" lon="10.762522906926296"><ele>409.1428571428571</ele><time>2026-03-26T10:56:22.999Z</time></trkpt><trkpt lat="43.26994644643696" lon="10.762475904946548"><ele>412.85714285714283</ele><time>2026-03-26T10:56:28.999Z</time></trkpt><trkpt lat="43.270011723624194" lon="10.762451816902539"><ele>416.57142857142856</ele><time>2026-03-26T10:56:34.999Z</time></trkpt><trkpt lat="43.270074927727045" lon="10.762424345552907"><ele>420.2857142857143</ele><time>2026-03-26T10:56:39.999Z</time></trkpt><trkpt lat="43.270152863985324" lon="10.762425693691553"><ele>424.0</ele><time>2026-03-26T10:56:46Z</time></trkpt><trkpt lat="43.27021842996075" lon="10.762451823712343"><ele>424.0</ele><time>2026-03-26T10:56:52Z</time></trkpt><trkpt lat="43.27027981742623" lon="10.76250750451593"><ele>424.0</ele><time>2026-03-26T10:56:59Z</time></trkpt><trkpt lat="43.270340770589954" lon="10.76255899982657"><ele>424.0</ele><time>2026-03-26T10:57:04Z</time></trkpt><trkpt lat="43.27040063671576" lon="10.76260597583448"><ele>424.0</ele><time>2026-03-26T10:57:10Z</time></trkpt><trkpt lat="43.2704743313826" lon="10.762633884910928"><ele>424.0</ele><time>2026-03-26T10:57:16Z</time></trkpt><trkpt lat="43.27053425416682" lon="10.762662198681102"><ele>424.0</ele><time>2026-03-26T10:57:21Z</time></trkpt><trkpt lat="43.27059909566646" lon="10.762673716580782"><ele>424.0</ele><time>2026-03-26T10:57:26Z</time></trkpt><trkpt lat="43.27066237284589" lon="10.76271225327627"><ele>422.0</ele><time>2026-03-26T10:57:37Z</time></trkpt><trkpt lat="43.270724935477105" lon="10.762739445038177"><ele>420.0</ele><time>2026-03-26T10:57:44.999Z</time></trkpt><trkpt lat="43.27079435567628" lon="10.7627723170558"><ele>418.0</ele><time>2026-03-26T10:57:50.999Z</time></trkpt><trkpt lat="43.27085935437104" lon="10.762781553752395"><ele>416.0</ele><time>2026-03-26T10:57:57.999Z</time></trkpt><trkpt lat="43.270930944872774" lon="10.762811132680483"><ele>414.0</ele><time>2026-03-26T10:58:04.999Z</time></trkpt><trkpt lat="43.27101224695611" lon="10.762838622008578"><ele>412.0</ele><time>2026-03-26T10:58:13.999Z</time></trkpt><trkpt lat="43.27107899166168" lon="10.762831840242749"><ele>410.0</ele><time>2026-03-26T10:58:21.999Z</time></trkpt><trkpt lat="43.271143069496205" lon="10.762803798516934"><ele>410.0</ele><time>2026-03-26T10:58:28.999Z</time></trkpt><trkpt lat="43.27119399275759" lon="10.762751849679717"><ele>410.0</ele><time>2026-03-26T10:58:33.999Z</time></trkpt><trkpt lat="43.27124057134767" lon="10.762680346999382"><ele>410.0</ele><time>2026-03-26T10:58:40.999Z</time></trkpt><trkpt lat="43.27128685213956" lon="10.76260974715543"><ele>410.0</ele><time>2026-03-26T10:58:46.999Z</time></trkpt><trkpt lat="43.27136226421651" lon="10.762593707104918"><ele>410.0</ele><time>2026-03-26T10:58:51.999Z</time></trkpt><trkpt lat="43.2714373239309" lon="10.76262621575164"><ele>410.0</ele><time>2026-03-26T10:58:57.999Z</time></trkpt><trkpt lat="43.27149658737653" lon="10.762681478947101"><ele>410.0</ele><time>2026-03-26T10:59:03.999Z</time></trkpt><trkpt lat="43.271563269223066" lon="10.762696982839687"><ele>413.2857142857143</ele><time>2026-03-26T10:59:10.999Z</time></trkpt><trkpt lat="43.27163399346633" lon="10.762685835916416"><ele>416.57142857142856</ele><time>2026-03-26T10:59:18Z</time></trkpt><trkpt lat="43.27169959187309" lon="10.762647666923192"><ele>419.85714285714283</ele><time>2026-03-26T10:59:24Z</time></trkpt><trkpt lat="43.27176732745031" lon="10.762655050762852"><ele>423.1428571428571</ele><time>2026-03-26T10:59:28.999Z</time></trkpt><trkpt lat="43.2718480723551" lon="10.76266060669533"><ele>426.42857142857144</ele><time>2026-03-26T10:59:35.999Z</time></trkpt><trkpt lat="43.27191827295313" lon="10.762634115887154"><ele>429.71428571428567</ele><time>2026-03-26T10:59:42.999Z</time></trkpt><trkpt lat="43.271984664791916" lon="10.76261578370863"><ele>433.0</ele><time>2026-03-26T10:59:48.999Z</time></trkpt><trkpt lat="43.27198766198833" lon="10.762505290194813"><ele>432.99999999999994</ele><time>2026-03-26T10:59:54.999Z</time></trkpt><trkpt lat="43.271977125153164" lon="10.762418839474364"><ele>433.0</ele><time>2026-03-26T11:00:05.999Z</time></trkpt><trkpt lat="43.2719306974333" lon="10.762354339093578"><ele>433.0</ele><time>2026-03-26T11:00:15.999Z</time></trkpt><trkpt lat="43.2718813597535" lon="10.762287253530891"><ele>433.0</ele><time>2026-03-26T11:00:24.999Z</time></trkpt><trkpt lat="43.271836910226874" lon="10.762214598354861"><ele>433.0</ele><time>2026-03-26T11:00:44.999Z</time></trkpt><trkpt lat="43.271780335702395" lon="10.762168862638449"><ele>432.99999999999994</ele><time>2026-03-26T11:01:00Z</time></trkpt><trkpt lat="43.271737214206205" lon="10.76210565378478"><ele>433.0</ele><time>2026-03-26T11:01:09Z</time></trkpt><trkpt lat="43.27167727445358" lon="10.76205396088133"><ele>432.99999999999994</ele><time>2026-03-26T11:01:30Z</time></trkpt><trkpt lat="43.271594982841464" lon="10.762009142926797"><ele>433.0</ele><time>2026-03-26T11:01:36Z</time></trkpt><trkpt lat="43.27154984419526" lon="10.761945817555477"><ele>433.0</ele><time>2026-03-26T11:01:46Z</time></trkpt><trkpt lat="43.27149116277326" lon="10.761910597915497"><ele>433.0</ele><time>2026-03-26T11:01:54Z</time></trkpt><trkpt lat="43.27142784960095" lon="10.761860781180053"><ele>433.0</ele><time>2026-03-26T11:02:02Z</time></trkpt><trkpt lat="43.27136083435754" lon="10.761833625745961"><ele>432.99999999999994</ele><time>2026-03-26T11:02:09Z</time></trkpt><trkpt lat="43.27130102993973" lon="10.761797805169921"><ele>433.0</ele><time>2026-03-26T11:02:15Z</time></trkpt><trkpt lat="43.27123486038746" lon="10.761773687475316"><ele>461.0</ele><time>2026-03-26T11:02:22Z</time></trkpt><trkpt lat="43.27116482754727" lon="10.761743663847248"><ele>461.0</ele><time>2026-03-26T11:02:28Z</time></trkpt><trkpt lat="43.271107235135204" lon="10.761692687184954"><ele>461.0</ele><time>2026-03-26T11:02:34Z</time></trkpt><trkpt lat="43.27104612603774" lon="10.761667309325427"><ele>461.0</ele><time>2026-03-26T11:02:40Z</time></trkpt><trkpt lat="43.270968989174605" lon="10.761632953122124"><ele>461.0</ele><time>2026-03-26T11:02:45.999Z</time></trkpt><trkpt lat="43.27090344231278" lon="10.761608109383175"><ele>461.0</ele><time>2026-03-26T11:02:54.999Z</time></trkpt><trkpt lat="43.27088280859477" lon="10.761520767051358"><ele>461.0</ele><time>2026-03-26T11:03:01.999Z</time></trkpt></trkseg></trk></gpx>